Time;durP1;ratioP1;P1;durP2;ratioP2;P2;SDS_P1;SDS_P2;PMS_P1;PMS_P2;Temp;Humidity;BMP_temperature;BMP_pressure;BME280_temperature;BME280_humidity;BME280_pressure;Samples;Min_cycle;Max_cycle;Signal;HPM_P1;HPM_P2
2024/02/02 00:00:12;;;;;;;29.20;10.05;;;10.80;99.90;;;;;;7384390;19;20003;-76
2024/02/02 00:02:41;;;;;;;24.48;11.23;;;10.80;99.90;;;;;;7387252;19;20401;-76
2024/02/02 00:05:10;;;;;;;24.73;11.02;;;10.90;99.90;;;;;;7381779;19;20015;-75
2024/02/02 00:07:39;;;;;;;27.38;12.27;;;10.90;99.90;;;;;;7380853;19;20019;-76
2024/02/02 00:10:10;;;;;;;26.55;11.07;;;10.90;99.90;;;;;;7379070;19;20023;-76
2024/02/02 00:12:42;;;;;;;22.77;11.15;;;10.90;99.90;;;;;;7402299;19;20006;-76
2024/02/02 00:15:11;;;;;;;17.77;9.32;;;10.90;99.90;;;;;;7379306;19;20084;-76
2024/02/02 00:17:40;;;;;;;26.30;9.88;;;11.00;99.90;;;;;;7379982;19;20111;-76
2024/02/02 00:20:11;;;;;;;24.58;11.30;;;11.00;99.90;;;;;;7382088;19;20027;-76
2024/02/02 00:22:40;;;;;;;50.45;13.48;;;11.10;99.90;;;;;;7382035;19;20086;-76
2024/02/02 00:25:11;;;;;;;33.15;12.80;;;11.10;99.90;;;;;;7379945;19;20014;-77
2024/02/02 00:27:43;;;;;;;36.33;12.95;;;11.20;99.90;;;;;;7401261;19;20002;-76
2024/02/02 00:30:12;;;;;;;;;;;11.20;99.90;;;;;;7381894;19;20003;-77
2024/02/02 00:32:44;;;;;;;32.22;13.20;;;11.30;99.90;;;;;;7379423;19;19907;-75
2024/02/02 00:35:14;;;;;;;45.35;14.30;;;11.30;99.90;;;;;;7378700;19;20270;-76
2024/02/02 00:37:44;;;;;;;34.92;13.82;;;11.30;99.90;;;;;;7382006;19;20390;-76
2024/02/02 00:40:13;;;;;;;87.18;15.45;;;11.30;99.90;;;;;;7379102;19;20346;-76
2024/02/02 00:42:44;;;;;;;46.72;15.30;;;11.30;99.90;;;;;;7400361;19;20006;-75
2024/02/02 00:45:14;;;;;;;41.22;14.38;;;11.30;99.90;;;;;;7377764;19;20066;-75
2024/02/02 00:47:43;;;;;;;78.82;16.15;;;11.20;99.90;;;;;;7381173;19;20003;-76
2024/02/02 00:50:12;;;;;;;38.42;14.98;;;11.20;99.90;;;;;;7380107;19;20016;-75
2024/02/02 00:52:43;;;;;;;44.45;12.70;;;11.20;99.90;;;;;;7380980;19;19999;-75
2024/02/02 00:55:12;;;;;;;22.30;12.20;;;11.10;99.90;;;;;;7379593;19;20020;-76
2024/02/02 00:57:43;;;;;;;30.35;12.32;;;11.10;99.90;;;;;;7404795;19;20010;-75
2024/02/02 01:00:13;;;;;;;102.50;12.98;;;11.10;99.90;;;;;;7380183;19;20011;-76
2024/02/02 01:02:42;;;;;;;169.73;15.13;;;11.10;99.90;;;;;;7379539;19;20006;-76
2024/02/02 01:05:12;;;;;;;61.10;13.13;;;11.00;99.90;;;;;;7378907;19;20006;-76
2024/02/02 01:07:41;;;;;;;110.75;14.63;;;11.00;99.90;;;;;;7378292;19;20010;-76
2024/02/02 01:10:16;;;;;;;65.50;12.68;;;10.90;99.90;;;;;;7378194;19;20150;-76
2024/02/02 01:12:47;;;;;;;29.17;12.95;;;10.90;99.90;;;;;;7399594;19;20006;-75
2024/02/02 01:15:17;;;;;;;;;;;10.90;99.90;;;;;;7377641;19;20012;-75
2024/02/02 01:17:47;;;;;;;21.80;10.50;;;11.00;99.90;;;;;;7377941;19;19932;-75
2024/02/02 01:20:16;;;;;;;45.53;11.32;;;11.00;99.90;;;;;;7378253;19;20066;-76
2024/02/02 01:22:45;;;;;;;26.95;10.57;;;11.00;99.90;;;;;;7378240;19;20007;-76
2024/02/02 01:25:14;;;;;;;31.88;10.98;;;11.00;99.90;;;;;;7375996;19;20007;-76
2024/02/02 01:27:47;;;;;;;29.13;11.32;;;11.10;99.90;;;;;;7401449;19;20227;-76
2024/02/02 01:30:16;;;;;;;21.83;11.77;;;11.10;99.90;;;;;;7375377;19;20003;-76
2024/02/02 01:32:45;;;;;;;26.02;11.52;;;11.10;99.90;;;;;;7377229;19;20038;-76
2024/02/02 01:35:13;;;;;;;32.70;11.57;;;11.10;99.90;;;;;;7377702;19;20015;-76
2024/02/02 01:37:42;;;;;;;126.55;13.32;;;11.10;99.90;;;;;;7377928;19;20006;-76
2024/02/02 01:40:13;;;;;;;20.52;10.85;;;11.00;99.90;;;;;;7376111;19;20015;-76
2024/02/02 01:42:39;;;;;;;29.45;7.90;;;11.00;99.90;;;;;;7402026;19;20015;-76
2024/02/02 01:45:11;;;;;;;25.10;10.32;;;11.00;99.90;;;;;;7387596;19;20062;-76
2024/02/02 01:47:40;;;;;;;28.23;11.27;;;10.90;99.90;;;;;;7379734;19;20011;-76
2024/02/02 01:50:10;;;;;;;48.47;11.98;;;10.90;99.90;;;;;;7377138;19;20461;-76
2024/02/02 01:52:38;;;;;;;19.67;10.52;;;10.90;99.90;;;;;;7383039;19;20019;-76
2024/02/02 01:55:06;;;;;;;21.77;11.68;;;10.80;99.90;;;;;;7388375;19;20015;-75
2024/02/02 01:57:35;;;;;;;36.13;11.32;;;10.80;99.90;;;;;;7419273;19;20499;-77
2024/02/02 02:00:04;;;;;;;33.03;10.13;;;10.80;99.90;;;;;;7395501;19;20012;-77
2024/02/02 02:02:35;;;;;;;81.05;11.55;;;10.90;99.90;;;;;;7394502;19;20006;-76
2024/02/02 02:05:04;;;;;;;34.17;10.77;;;10.90;99.90;;;;;;7386010;19;20524;-76
2024/02/02 02:07:33;;;;;;;38.20;10.73;;;10.80;99.90;;;;;;7382348;19;20342;-76
2024/02/02 02:10:03;;;;;;;137.10;15.02;;;10.80;99.90;;;;;;7386254;19;20010;-76
2024/02/02 02:12:33;;;;;;;27.80;10.18;;;10.80;99.90;;;;;;7406041;19;20007;-76
2024/02/02 02:15:02;;;;;;;90.53;13.52;;;10.70;99.90;;;;;;7382839;19;20056;-77
2024/02/02 02:17:31;;;;;;;79.53;11.13;;;10.70;99.90;;;;;;7384090;19;20308;-77
2024/02/02 02:20:03;;;;;;;108.57;12.25;;;10.70;99.90;;;;;;7383477;19;20023;-77
2024/02/02 02:22:35;;;;;;;26.60;9.63;;;10.60;99.90;;;;;;7385142;19;20015;-76
2024/02/02 02:25:04;;;;;;;89.13;10.32;;;10.60;99.90;;;;;;7382624;19;20358;-76
2024/02/02 02:27:33;;;;;;;29.55;10.70;;;10.60;99.90;;;;;;7404339;19;20010;-75
2024/02/02 02:30:05;;;;;;;36.13;9.30;;;10.60;99.90;;;;;;7380910;19;20011;-76
2024/02/02 02:32:34;;;;;;;51.63;9.02;;;10.50;99.90;;;;;;7382730;19;20009;-76
2024/02/02 02:35:02;;;;;;;15.50;7.60;;;10.50;99.90;;;;;;7382734;19;20003;-75
2024/02/02 02:37:31;;;;;;;15.20;7.85;;;10.50;99.90;;;;;;7384019;19;20022;-75
2024/02/02 02:40:03;;;;;;;18.63;7.90;;;10.50;99.90;;;;;;7405227;19;20015;-75
2024/02/02 02:42:33;;;;;;;59.78;9.02;;;10.50;99.90;;;;;;7382226;19;20006;-75
2024/02/02 02:45:02;;;;;;;35.92;8.27;;;10.50;99.90;;;;;;7381806;19;20338;-75
2024/02/02 02:47:31;;;;;;;14.25;7.82;;;10.50;99.90;;;;;;7383256;19;20007;-75
2024/02/02 02:50:00;;;;;;;27.17;8.10;;;10.40;99.90;;;;;;7384463;19;20010;-76
2024/02/02 02:52:28;;;;;;;31.17;7.28;;;10.40;99.90;;;;;;7388002;19;20023;-76
2024/02/02 02:54:58;;;;;;;37.42;7.80;;;10.30;99.90;;;;;;7406755;19;20003;-76
2024/02/02 02:57:30;;;;;;;9.85;6.15;;;10.20;99.90;;;;;;7385135;19;20024;-76
2024/02/02 02:59:58;;;;;;;14.40;6.68;;;10.20;99.90;;;;;;7381869;19;20007;-76
2024/02/02 03:02:27;;;;;;;36.35;8.23;;;10.20;99.90;;;;;;7381582;19;20007;-76
2024/02/02 03:04:56;;;;;;;25.83;8.00;;;10.20;99.90;;;;;;7381138;19;20003;-77
2024/02/02 03:07:25;;;;;;;26.95;7.72;;;10.20;99.90;;;;;;7381574;19;20014;-76
2024/02/02 03:09:53;;;;;;;23.13;6.80;;;10.10;99.90;;;;;;7405506;19;20015;-77
2024/02/02 03:12:22;;;;;;;9.98;5.80;;;10.00;99.90;;;;;;7381129;19;20007;-76
2024/02/02 03:14:54;;;;;;;11.35;5.68;;;10.00;99.90;;;;;;7380415;19;20003;-77
2024/02/02 03:17:25;;;;;;;11.20;6.38;;;10.00;99.90;;;;;;7381301;19;20007;-77
2024/02/02 03:19:54;;;;;;;13.00;6.80;;;9.90;99.90;;;;;;7384030;19;20003;-76
2024/02/02 03:22:24;;;;;;;31.77;7.18;;;10.00;99.90;;;;;;7381480;19;20014;-76
2024/02/02 03:24:53;;;;;;;140.05;9.18;;;10.00;99.90;;;;;;7402689;19;20003;-75
2024/02/02 03:27:22;;;;;;;52.10;6.72;;;10.00;99.90;;;;;;7380895;19;20002;-75
2024/02/02 03:29:55;;;;;;;48.05;8.20;;;9.90;99.90;;;;;;7379627;19;20167;-75
2024/02/02 03:32:23;;;;;;;50.58;7.18;;;9.90;99.90;;;;;;7382436;19;20043;-76
2024/02/02 03:34:52;;;;;;;47.53;6.88;;;9.90;99.90;;;;;;7382927;19;20088;-76
2024/02/02 03:37:21;;;;;;;70.65;8.38;;;9.90;99.90;;;;;;7382599;19;20368;-76
2024/02/02 03:39:51;;;;;;;34.42;6.80;;;9.90;99.90;;;;;;7402488;19;20240;-76
2024/02/02 03:42:20;;;;;;;12.50;7.13;;;9.90;99.90;;;;;;7380269;19;20006;-75
2024/02/02 03:44:48;;;;;;;22.00;7.13;;;9.80;99.90;;;;;;7380196;19;20400;-77
2024/02/02 03:47:20;;;;;;;32.03;7.38;;;9.70;99.90;;;;;;7381646;19;20015;-76
2024/02/02 03:49:50;;;;;;;28.98;6.30;;;9.70;99.90;;;;;;7382568;19;20007;-76
2024/02/02 03:52:23;;;;;;;10.95;5.75;;;9.60;99.90;;;;;;7381862;19;20031;-76
2024/02/02 03:54:51;;;;;;;10.13;5.95;;;9.60;99.90;;;;;;7401819;19;20010;-76
2024/02/02 03:57:24;;;;;;;11.35;5.90;;;9.60;99.90;;;;;;7382594;19;20437;-76
2024/02/02 03:59:53;;;;;;;22.42;7.47;;;9.70;99.90;;;;;;7381261;19;20027;-76
2024/02/02 04:02:24;;;;;;;97.47;8.15;;;9.70;99.90;;;;;;7379756;19;20019;-76
2024/02/02 04:04:53;;;;;;;24.23;6.95;;;9.60;99.90;;;;;;7381853;19;20007;-77
2024/02/02 04:07:22;;;;;;;38.80;8.07;;;9.60;99.90;;;;;;7379780;19;20109;-77
2024/02/02 04:09:51;;;;;;;16.65;7.15;;;9.60;99.90;;;;;;7400989;19;20011;-75
2024/02/02 04:12:22;;;;;;;16.85;7.70;;;9.50;99.90;;;;;;7379020;19;20111;-75
2024/02/02 04:14:51;;;;;;;27.98;7.60;;;9.50;99.90;;;;;;7380505;19;20007;-75
2024/02/02 04:17:19;;;;;;;35.35;7.75;;;9.50;99.90;;;;;;7379775;19;20007;-76
2024/02/02 04:19:51;;;;;;;46.97;8.55;;;9.50;99.90;;;;;;7377978;19;20007;-76
2024/02/02 04:22:19;;;;;;;36.58;6.75;;;9.40;99.90;;;;;;7379432;19;20670;-75
2024/02/02 04:24:48;;;;;;;100.20;10.18;;;9.40;99.90;;;;;;7401333;19;20027;-74
2024/02/02 04:27:17;;;;;;;32.58;9.27;;;9.40;99.90;;;;;;7379371;19;20015;-75
2024/02/02 04:29:46;;;;;;;18.60;7.93;;;9.40;99.90;;;;;;7380531;19;20002;-76
2024/02/02 04:32:17;;;;;;;64.63;8.75;;;9.40;99.90;;;;;;7385810;19;20020;-76
2024/02/02 04:34:46;;;;;;;42.42;9.13;;;9.40;99.90;;;;;;7387721;19;20014;-75
2024/02/02 04:37:17;;;;;;;49.40;8.23;;;9.50;99.90;;;;;;7383390;19;20011;-76
2024/02/02 04:39:46;;;;;;;27.50;6.88;;;9.40;99.90;;;;;;7406558;19;20019;-76
2024/02/02 04:42:15;;;;;;;25.38;7.50;;;9.30;99.90;;;;;;7383281;19;20007;-76
2024/02/02 04:44:45;;;;;;;19.15;8.18;;;9.30;99.90;;;;;;7384027;19;20014;-75
2024/02/02 04:47:14;;;;;;;13.80;7.30;;;9.30;99.90;;;;;;7382029;19;20501;-75
2024/02/02 04:49:43;;;;;;;21.75;7.82;;;9.40;99.90;;;;;;7377888;19;20020;-75
2024/02/02 04:52:12;;;;;;;30.90;9.00;;;9.30;99.90;;;;;;7387410;19;20003;-76
2024/02/02 04:54:43;;;;;;;14.95;6.50;;;9.30;99.90;;;;;;7399571;19;20006;-75
2024/02/02 04:57:12;;;;;;;40.08;9.05;;;9.40;99.90;;;;;;7377119;19;20003;-75
2024/02/02 04:59:41;;;;;;;22.40;7.07;;;9.30;99.90;;;;;;7380618;19;20010;-75
2024/02/02 05:02:18;;;;;;;16.83;7.22;;;9.30;99.90;;;;;;7376795;19;19998;-76
2024/02/02 05:04:47;;;;;;;18.08;6.70;;;9.40;99.90;;;;;;7378390;19;20014;-76
2024/02/02 05:07:17;;;;;;;10.80;6.22;;;9.30;99.90;;;;;;7377468;19;20014;-76
2024/02/02 05:09:50;;;;;;;14.63;6.13;;;9.30;99.90;;;;;;7396745;19;20086;-75
2024/02/02 05:12:19;;;;;;;27.23;6.82;;;9.30;99.90;;;;;;7376580;19;20012;-75
2024/02/02 05:14:49;;;;;;;31.67;7.10;;;9.20;99.90;;;;;;7376287;19;20244;-75
2024/02/02 05:17:17;;;;;;;14.57;6.40;;;9.20;99.90;;;;;;7376958;19;20551;-76
2024/02/02 05:19:46;;;;;;;17.23;6.78;;;9.20;99.90;;;;;;7377491;19;20016;-75
2024/02/02 05:22:15;;;;;;;47.55;7.40;;;9.20;99.90;;;;;;7377754;19;20422;-75
2024/02/02 05:24:44;;;;;;;40.47;7.63;;;9.20;99.90;;;;;;7401545;19;20003;-75
2024/02/02 05:27:16;;;;;;;35.17;6.70;;;9.20;99.90;;;;;;7377333;19;19999;-75
2024/02/02 05:29:45;;;;;;;47.00;7.65;;;9.20;99.90;;;;;;7376150;19;20006;-75
2024/02/02 05:32:14;;;;;;;33.40;6.65;;;9.20;99.90;;;;;;7384889;19;20385;-76
2024/02/02 05:34:48;;;;;;;16.55;7.20;;;9.10;99.90;;;;;;7384996;19;20024;-75
2024/02/02 05:37:16;;;;;;;21.05;7.32;;;9.20;99.90;;;;;;7384370;19;20019;-76
2024/02/02 05:39:46;;;;;;;25.88;7.53;;;9.20;99.90;;;;;;7406165;19;20324;-75
2024/02/02 05:42:17;;;;;;;11.20;6.47;;;9.20;99.90;;;;;;7386451;19;20021;-75
2024/02/02 05:44:48;;;;;;;;;;;9.30;99.90;;;;;;7385236;19;20027;-76
2024/02/02 05:47:17;;;;;;;22.92;6.22;;;9.40;99.90;;;;;;7384612;19;19910;-75
2024/02/02 05:49:46;;;;;;;22.40;6.97;;;9.40;99.90;;;;;;7384503;19;20010;-75
2024/02/02 05:52:15;;;;;;;24.60;7.78;;;9.40;99.90;;;;;;7405945;19;20225;-75
2024/02/02 05:54:43;;;;;;;20.30;7.20;;;9.40;99.90;;;;;;7384430;19;20006;-75
2024/02/02 05:57:12;;;;;;;86.43;8.65;;;9.30;99.90;;;;;;7384929;19;20018;-72
2024/02/02 05:59:46;;;;;;;16.63;7.75;;;9.40;99.90;;;;;;7368981;19;20027;-77
2024/02/02 06:02:15;;;;;;;133.27;11.50;;;9.30;99.90;;;;;;7386525;19;20024;-73
2024/02/02 06:04:44;;;;;;;50.25;9.15;;;9.40;99.90;;;;;;7407683;19;20017;-71
2024/02/02 06:07:13;;;;;;;28.38;8.35;;;9.40;99.90;;;;;;7385415;19;20223;-73
2024/02/02 06:09:41;;;;;;;76.78;8.68;;;9.40;99.90;;;;;;7384964;19;20233;-73
2024/02/02 06:12:10;;;;;;;38.42;10.18;;;9.40;99.90;;;;;;7383478;19;20023;-73
2024/02/02 06:14:39;;;;;;;21.05;8.73;;;9.50;99.90;;;;;;7384342;19;20011;-71
2024/02/02 06:17:11;;;;;;;18.00;8.20;;;9.50;99.90;;;;;;7385124;19;20233;-73
2024/02/02 06:19:39;;;;;;;15.73;7.47;;;9.60;99.90;;;;;;7407017;19;20015;-72
2024/02/02 06:22:08;;;;;;;33.20;7.05;;;9.60;99.90;;;;;;7384670;19;20006;-72
2024/02/02 06:24:37;;;;;;;32.00;8.25;;;9.60;99.90;;;;;;7384300;19;20003;-72
2024/02/02 06:27:07;;;;;;;17.13;7.35;;;9.60;99.90;;;;;;7384199;19;20015;-72
2024/02/02 06:29:35;;;;;;;41.42;8.30;;;9.60;99.90;;;;;;7384360;19;20055;-73
2024/02/02 06:32:04;;;;;;;18.73;7.72;;;9.70;99.90;;;;;;7382369;19;20087;-73
2024/02/02 06:34:36;;;;;;;17.98;6.53;;;9.70;99.90;;;;;;7405995;19;20011;-73
2024/02/02 06:37:05;;;;;;;46.40;6.45;;;9.70;99.90;;;;;;7383740;19;20366;-73
2024/02/02 06:39:34;;;;;;;23.27;7.57;;;9.70;99.90;;;;;;7384195;19;20015;-73
2024/02/02 06:42:03;;;;;;;15.88;7.03;;;9.70;99.90;;;;;;7383295;19;20055;-72
2024/02/02 06:44:32;;;;;;;19.30;6.78;;;9.70;99.90;;;;;;7384274;19;20068;-72
2024/02/02 06:47:01;;;;;;;19.88;7.90;;;9.70;99.90;;;;;;7405828;19;20010;-73
2024/02/02 06:49:30;;;;;;;27.08;7.55;;;9.70;99.90;;;;;;7383927;19;20023;-73
2024/02/02 06:52:01;;;;;;;17.30;7.30;;;9.70;99.90;;;;;;7383068;19;20435;-73
2024/02/02 06:54:30;;;;;;;14.85;6.50;;;9.80;99.90;;;;;;7384425;19;20006;-73
2024/02/02 06:56:58;;;;;;;12.07;6.43;;;9.80;99.90;;;;;;7385832;19;20010;-73
2024/02/02 06:59:27;;;;;;;12.27;6.40;;;9.80;99.90;;;;;;7384221;19;20010;-72
2024/02/02 07:01:56;;;;;;;17.77;6.55;;;9.70;99.90;;;;;;7405648;19;20252;-73
2024/02/02 07:04:25;;;;;;;30.83;7.38;;;9.70;99.90;;;;;;7383338;19;20018;-72
2024/02/02 07:06:54;;;;;;;12.50;6.57;;;9.70;99.90;;;;;;7383539;19;20068;-72
2024/02/02 07:09:33;;;;;;;10.88;6.07;;;9.80;99.90;;;;;;7384060;19;20343;-72
2024/02/02 07:12:04;;;;;;;20.05;7.22;;;9.80;99.90;;;;;;7382795;19;20007;-72
2024/02/02 07:14:48;;;;;;;19.65;7.13;;;9.80;99.90;;;;;;7382965;19;20026;-72
2024/02/02 07:17:34;;;;;;;12.00;6.55;;;9.90;99.90;;;;;;7385320;19;20010;-72
2024/02/02 07:20:04;;;;;;;23.95;7.95;;;9.90;99.90;;;;;;7410831;19;20011;-72
2024/02/02 07:22:40;;;;;;;26.02;7.53;;;10.00;99.90;;;;;;7390266;19;20039;-72
2024/02/02 07:25:14;;;;;;;31.77;8.32;;;10.00;99.90;;;;;;7385359;19;20015;-72
2024/02/02 07:27:54;;;;;;;14.95;7.30;;;10.00;99.90;;;;;;7388466;19;20021;-72
2024/02/02 07:30:52;;;;;;;52.35;7.63;;;10.00;99.90;;;;;;7388402;19;19999;-72
2024/02/02 07:33:25;;;;;;;18.77;8.02;;;10.00;99.90;;;;;;7386862;19;20006;-72
2024/02/02 07:35:57;;;;;;;19.27;8.65;;;10.10;99.90;;;;;;7383251;19;20002;-72
2024/02/02 07:38:53;;;;;;;;;;;10.10;99.90;;;;;;7383880;19;19996;-72
2024/02/02 07:41:26;;;;;;;24.13;7.97;;;10.10;99.90;;;;;;7381858;19;20219;-72
2024/02/02 07:43:57;;;;;;;22.15;8.00;;;10.10;99.90;;;;;;7403805;19;20022;-72
2024/02/02 07:46:26;;;;;;;16.25;7.63;;;10.10;99.90;;;;;;7382257;19;20020;-72
2024/02/02 07:48:55;;;;;;;30.20;8.68;;;10.10;99.90;;;;;;7382310;19;20002;-72
2024/02/02 07:51:24;;;;;;;20.73;8.52;;;10.20;99.90;;;;;;7381240;19;20029;-71
2024/02/02 07:53:53;;;;;;;15.38;7.13;;;10.10;99.90;;;;;;7379700;19;20382;-73
2024/02/02 07:56:25;;;;;;;14.27;8.25;;;10.10;99.90;;;;;;7383289;19;20011;-73
2024/02/02 07:58:55;;;;;;;44.10;8.52;;;10.10;99.90;;;;;;7403078;19;20003;-73
2024/02/02 08:01:23;;;;;;;25.52;8.23;;;10.00;99.90;;;;;;7381393;19;20421;-73
2024/02/02 08:03:52;;;;;;;30.33;8.30;;;9.90;99.90;;;;;;7381705;19;20386;-73
2024/02/02 08:06:21;;;;;;;15.98;8.18;;;9.90;99.90;;;;;;7382871;19;20049;-73
2024/02/02 08:08:49;;;;;;;16.33;8.38;;;9.90;99.90;;;;;;7381380;19;20017;-72
2024/02/02 08:11:18;;;;;;;24.73;7.88;;;9.90;99.90;;;;;;7381480;19;20003;-73
2024/02/02 08:13:49;;;;;;;28.30;8.35;;;9.70;99.90;;;;;;7402172;19;20011;-72
2024/02/02 08:16:18;;;;;;;13.77;7.72;;;9.80;99.90;;;;;;7381209;19;20003;-72
2024/02/02 08:18:47;;;;;;;14.20;8.38;;;9.80;99.90;;;;;;7381341;19;20027;-73
2024/02/02 08:21:16;;;;;;;28.02;8.32;;;9.90;99.90;;;;;;7380820;19;20003;-72
2024/02/02 08:23:46;;;;;;;21.05;7.35;;;9.90;99.90;;;;;;7381291;19;20006;-73
2024/02/02 08:26:15;;;;;;;24.65;6.88;;;9.90;99.90;;;;;;7381030;19;20006;-72
2024/02/02 08:28:44;;;;;;;13.27;7.68;;;9.80;99.90;;;;;;7402065;19;20023;-72
2024/02/02 08:31:15;;;;;;;17.38;7.72;;;9.80;99.90;;;;;;7380067;19;20063;-73
2024/02/02 08:33:44;;;;;;;21.80;8.15;;;9.90;99.90;;;;;;7380801;19;20003;-73
2024/02/02 08:36:13;;;;;;;19.70;7.72;;;9.90;99.90;;;;;;7380161;19;20009;-72
2024/02/02 08:38:42;;;;;;;14.30;8.02;;;10.00;99.90;;;;;;7380851;19;20014;-72
2024/02/02 08:41:11;;;;;;;15.48;7.65;;;9.90;99.90;;;;;;7380041;19;20011;-72
2024/02/02 08:43:42;;;;;;;17.90;7.93;;;9.70;99.90;;;;;;7401573;19;20105;-73
2024/02/02 08:46:12;;;;;;;13.45;7.88;;;9.70;99.90;;;;;;7380050;19;20002;-72
2024/02/02 08:48:49;;;;;;;11.93;6.68;;;9.80;99.90;;;;;;7382267;19;20002;-73
2024/02/02 08:51:53;;;;;;;17.60;7.82;;;9.80;99.90;;;;;;7379854;19;20003;-73
2024/02/02 08:54:37;;;;;;;12.95;7.03;;;9.90;99.90;;;;;;7379914;19;20080;-72
2024/02/02 08:57:33;;;;;;;15.82;8.10;;;9.90;99.90;;;;;;7380333;19;20069;-72
2024/02/02 09:00:09;;;;;;;13.77;6.78;;;10.00;99.90;;;;;;7380363;19;20002;-73
2024/02/02 09:02:55;;;;;;;10.70;6.43;;;10.10;99.90;;;;;;7380111;19;20402;-72
2024/02/02 09:05:28;;;;;;;12.30;6.43;;;9.90;99.90;;;;;;7379003;19;20015;-72
2024/02/02 09:08:12;;;;;;;10.63;6.60;;;9.90;99.90;;;;;;7401360;19;20014;-71
2024/02/02 09:11:22;;;;;;;11.00;6.47;;;9.80;99.90;;;;;;7379325;19;20027;-72
2024/02/02 09:14:07;;;;;;;11.25;6.47;;;9.80;99.90;;;;;;7378401;19;20250;-72
2024/02/02 09:16:47;;;;;;;13.07;6.82;;;9.90;99.90;;;;;;7379451;19;20010;-72
2024/02/02 09:19:25;;;;;;;15.88;7.22;;;9.80;99.90;;;;;;7379962;19;20007;-72
2024/02/02 09:21:58;;;;;;;14.02;6.72;;;9.80;99.90;;;;;;7379742;19;20006;-72
2024/02/02 09:24:43;;;;;;;9.95;6.32;;;9.90;99.90;;;;;;7379430;19;20035;-72
2024/02/02 09:27:15;;;;;;;11.15;6.50;;;10.00;99.90;;;;;;7379643;19;20007;-72
2024/02/02 09:29:47;;;;;;;12.68;7.03;;;10.00;99.90;;;;;;7379839;19;20031;-72
2024/02/02 09:32:17;;;;;;;15.63;7.50;;;10.10;99.90;;;;;;7377778;19;20066;-73
2024/02/02 09:34:47;;;;;;;11.73;6.85;;;10.10;99.90;;;;;;7401004;19;20054;-72
2024/02/02 09:37:24;;;;;;;18.40;7.15;;;10.30;99.90;;;;;;7378600;19;20022;-72
2024/02/02 09:39:57;;;;;;;13.57;7.47;;;10.30;99.90;;;;;;7378456;19;20408;-73
2024/02/02 09:42:43;;;;;;;12.18;6.90;;;10.30;99.90;;;;;;7379399;19;20007;-73
2024/02/02 09:45:18;;;;;;;12.52;6.95;;;10.30;99.90;;;;;;7379893;19;20010;-72
2024/02/02 09:48:17;;;;;;;11.32;7.45;;;10.40;99.90;;;;;;7379099;19;20002;-73
2024/02/02 09:50:52;;;;;;;14.27;8.18;;;10.40;99.90;;;;;;7378739;19;20058;-73
2024/02/02 09:53:53;;;;;;;14.07;8.27;;;10.50;99.90;;;;;;7377049;19;20010;-72
2024/02/02 09:56:32;;;;;;;13.73;7.53;;;10.50;99.90;;;;;;7378195;19;20362;-72
2024/02/02 09:59:06;;;;;;;18.40;8.10;;;10.60;99.90;;;;;;7399953;19;20351;-72
2024/02/02 10:01:50;;;;;;;16.95;8.20;;;10.70;99.90;;;;;;7378206;19;20062;-73
2024/02/02 10:04:36;;;;;;;15.18;8.05;;;10.70;99.90;;;;;;7378476;19;20292;-73
2024/02/02 10:07:14;;;;;;;14.18;7.40;;;10.70;99.90;;;;;;7382390;19;20006;-73
2024/02/02 10:10:13;;;;;;;10.75;6.95;;;10.60;99.90;;;;;;7384208;19;20007;-72
2024/02/02 10:12:54;;;;;;;13.88;7.47;;;10.50;99.90;;;;;;7380653;19;20006;-72
2024/02/02 10:15:48;;;;;;;14.73;7.85;;;10.50;99.90;;;;;;7384304;19;20382;-72
2024/02/02 10:18:45;;;;;;;14.93;7.75;;;10.30;99.90;;;;;;7387596;19;20007;-72
2024/02/02 10:21:25;;;;;;;11.93;6.40;;;10.40;99.90;;;;;;7385364;19;20006;-72
2024/02/02 10:24:19;;;;;;;12.02;7.05;;;10.50;99.90;;;;;;7385562;19;20007;-72
2024/02/02 10:27:06;;;;;;;11.95;7.28;;;10.70;99.90;;;;;;7385465;19;20026;-72
2024/02/02 10:29:48;;;;;;;12.25;6.63;;;10.70;99.90;;;;;;7385035;19;20308;-72
2024/02/02 10:32:43;;;;;;;12.95;7.45;;;10.80;99.90;;;;;;7384123;19;20035;-72
2024/02/02 10:35:25;;;;;;;13.68;6.90;;;10.80;99.90;;;;;;7385505;19;20006;-72
2024/02/02 10:37:54;;;;;;;13.20;6.60;;;10.90;99.90;;;;;;7406388;19;20015;-72
2024/02/02 10:40:39;;;;;;;12.60;6.97;;;11.00;99.90;;;;;;7384158;19;20006;-72
2024/02/02 10:43:25;;;;;;;10.57;6.45;;;10.90;99.90;;;;;;7384353;19;20084;-72
2024/02/02 10:46:09;;;;;;;12.05;7.07;;;10.90;99.90;;;;;;7384479;19;20006;-73
2024/02/02 10:48:49;;;;;;;12.52;6.75;;;10.90;99.90;;;;;;7384765;19;20010;-72
2024/02/02 10:51:26;;;;;;;12.07;6.28;;;10.70;99.90;;;;;;7384108;19;20019;-72
2024/02/02 10:54:07;;;;;;;9.65;6.13;;;10.80;99.90;;;;;;7383960;19;20256;-72
2024/02/02 10:56:46;;;;;;;8.25;5.70;;;11.00;99.90;;;;;;7384547;19;20006;-72
2024/02/02 10:59:23;;;;;;;12.60;6.78;;;11.20;99.90;;;;;;7384417;19;20019;-72
2024/02/02 11:02:00;;;;;;;10.57;6.20;;;11.20;99.90;;;;;;7405005;19;20014;-72
2024/02/02 11:04:37;;;;;;;13.10;6.75;;;11.10;99.90;;;;;;7383269;19;20003;-73
2024/02/02 11:07:21;;;;;;;12.82;6.95;;;11.20;99.90;;;;;;7384233;19;20070;-72
2024/02/02 11:09:58;;;;;;;10.70;6.45;;;11.30;99.90;;;;;;7384286;19;20014;-72
2024/02/02 11:12:37;;;;;;;14.88;7.25;;;11.20;99.90;;;;;;7383748;19;20007;-72
2024/02/02 11:15:21;;;;;;;10.07;6.18;;;11.30;99.90;;;;;;7381591;19;20011;-72
2024/02/02 11:18:04;;;;;;;10.27;6.70;;;11.40;99.90;;;;;;7383385;19;20382;-72
2024/02/02 11:20:50;;;;;;;17.90;6.88;;;11.50;99.90;;;;;;7383956;19;20011;-72
2024/02/02 11:23:28;;;;;;;17.00;6.55;;;11.50;99.90;;;;;;7383198;19;20007;-73
2024/02/02 11:26:06;;;;;;;14.38;6.97;;;11.50;99.90;;;;;;7404722;19;20006;-73
2024/02/02 11:28:46;;;;;;;10.38;6.07;;;11.70;99.90;;;;;;7382127;19;20006;-72
2024/02/02 11:31:27;;;;;;;10.60;5.90;;;11.60;99.90;;;;;;7382432;19;20051;-73
2024/02/02 11:34:06;;;;;;;10.05;6.38;;;11.40;99.90;;;;;;7381284;19;20003;-72
2024/02/02 11:36:51;;;;;;;12.80;5.93;;;11.50;99.90;;;;;;7383063;19;20007;-72
2024/02/02 11:39:36;;;;;;;9.70;5.82;;;11.30;99.90;;;;;;7382636;19;20010;-72
2024/02/02 11:42:05;;;;;;;11.43;6.03;;;11.50;99.90;;;;;;7382473;19;20027;-73
2024/02/02 11:44:37;;;;;;;12.02;5.85;;;11.60;99.90;;;;;;7382586;19;20012;-72
2024/02/02 11:47:07;;;;;;;11.60;6.53;;;11.60;99.90;;;;;;7403566;19;20115;-73
2024/02/02 11:49:47;;;;;;;10.57;6.60;;;11.70;99.90;;;;;;7382057;19;20383;-72
2024/02/02 11:52:23;;;;;;;12.05;6.75;;;11.50;99.90;;;;;;7381250;19;20003;-72
2024/02/02 11:55:01;;;;;;;12.57;6.03;;;11.50;99.90;;;;;;7381016;19;20028;-72
2024/02/02 11:57:33;;;;;;;10.75;6.03;;;11.40;99.90;;;;;;7381627;19;20112;-72
2024/02/02 12:00:05;;;;;;;9.55;6.22;;;11.40;99.90;;;;;;7382081;19;20373;-72
2024/02/02 12:02:52;;;;;;;9.50;6.25;;;11.40;99.90;;;;;;7381977;19;20023;-72
2024/02/02 12:05:31;;;;;;;9.13;5.65;;;11.30;99.90;;;;;;7381221;19;20242;-72
2024/02/02 12:08:07;;;;;;;10.57;6.13;;;11.40;99.90;;;;;;7403190;19;20007;-72
2024/02/02 12:10:43;;;;;;;10.23;5.50;;;11.30;99.90;;;;;;7380125;19;20014;-73
2024/02/02 12:13:21;;;;;;;11.25;6.10;;;11.30;99.90;;;;;;7381245;19;20011;-74
2024/02/02 12:15:52;;;;;;;10.60;6.28;;;11.30;99.90;;;;;;7380874;19;20013;-75
2024/02/02 12:18:21;;;;;;;11.90;5.68;;;11.50;99.90;;;;;;7382091;19;20004;-75
2024/02/02 12:20:53;;;;;;;9.50;5.20;;;11.50;99.90;;;;;;7381500;19;20018;-73
2024/02/02 12:23:22;;;;;;;10.00;5.68;;;11.60;99.90;;;;;;7385157;19;20010;-75
2024/02/02 12:25:52;;;;;;;8.93;5.00;;;11.70;99.90;;;;;;7402681;19;20010;-74
2024/02/02 12:28:21;;;;;;;8.88;5.53;;;11.80;99.90;;;;;;7382540;19;20007;-74
2024/02/02 12:30:50;;;;;;;8.77;5.35;;;11.90;99.90;;;;;;7380848;19;20007;-75
2024/02/02 12:33:23;;;;;;;11.18;5.32;;;11.90;99.90;;;;;;7381972;19;20003;-74
2024/02/02 12:35:54;;;;;;;11.32;5.32;;;12.00;99.90;;;;;;7380857;19;20074;-73
2024/02/02 12:38:24;;;;;;;6.78;4.90;;;12.10;99.90;;;;;;7380462;19;20010;-73
2024/02/02 12:40:53;;;;;;;10.88;6.32;;;12.00;99.90;;;;;;7400720;19;20007;-73
2024/02/02 12:43:28;;;;;;;11.18;5.45;;;12.00;99.90;;;;;;7380369;19;20007;-72
2024/02/02 12:45:58;;;;;;;11.13;5.32;;;11.90;99.90;;;;;;7381883;19;20006;-74
2024/02/02 12:48:27;;;;;;;8.15;5.00;;;12.00;99.90;;;;;;7389332;19;20003;-74
2024/02/02 12:51:00;;;;;;;7.43;4.57;;;12.00;99.90;;;;;;7389222;19;20010;-74
2024/02/02 12:53:29;;;;;;;9.23;4.65;;;12.10;99.90;;;;;;7386999;19;20006;-73
2024/02/02 12:55:58;;;;;;;11.13;4.80;;;12.10;99.90;;;;;;7407467;19;20018;-73
2024/02/02 12:58:27;;;;;;;9.52;4.40;;;12.20;99.90;;;;;;7382700;19;20258;-73
2024/02/02 13:00:56;;;;;;;9.70;5.18;;;12.40;99.90;;;;;;7382007;19;20231;-73
2024/02/02 13:03:26;;;;;;;8.00;5.05;;;12.50;99.90;;;;;;7381759;19;20002;-72
2024/02/02 13:05:58;;;;;;;9.02;4.90;;;12.50;99.90;;;;;;7380798;19;20026;-74
2024/02/02 13:08:32;;;;;;;10.57;4.68;;;12.50;99.90;;;;;;7380510;19;20007;-74